Time;durP1;ratioP1;P1;durP2;ratioP2;P2;SDS_P1;SDS_P2;PMS_P1;PMS_P2;Temp;Humidity;BMP_temperature;BMP_pressure;BME280_temperature;BME280_humidity;BME280_pressure;Samples;Min_cycle;Max_cycle;Signal;HPM_P1;HPM_P2
2022/05/22 00:00:53;;;;;;;1.20;1.20;;;;;;;16.17;55.33;100265.09;4454193;32;20112;-61
2022/05/22 00:03:20;;;;;;;11.23;1.77;;;;;;;16.10;55.01;100266.25;4454458;32;20580;-61
2022/05/22 00:05:47;;;;;;;1.45;1.25;;;;;;;16.09;55.16;100264.53;4454258;32;20131;-61
2022/05/22 00:08:14;;;;;;;4.25;1.02;;;;;;;16.06;55.50;100267.28;4454075;32;20096;-61
2022/05/22 00:10:42;;;;;;;1.98;1.45;;;;;;;16.01;55.84;100255.97;4439642;32;20097;-61
2022/05/22 00:13:09;;;;;;;3.90;1.17;;;;;;;15.95;55.32;100256.19;4454042;32;20144;-61
2022/05/22 00:16:36;;;;;;;2.15;1.30;;;;;;;15.87;56.31;100251.16;4454107;32;20153;-61
2022/05/22 00:18:23;;;;;;;3.50;1.20;;;;;;;15.94;55.71;100252.66;4453971;32;20084;-60
2022/05/22 00:20:50;;;;;;;1.65;1.30;;;;;;;15.82;56.33;100252.22;4454034;32;20511;-61
2022/05/22 00:23:17;;;;;;;1.45;1.20;;;;;;;15.81;56.08;100255.81;4454009;32;20097;-61
2022/05/22 00:25:44;;;;;;;1.20;1.00;;;;;;;15.78;55.87;100251.47;4454185;32;20549;-61
2022/05/22 00:28:12;;;;;;;2.15;1.25;;;;;;;15.70;56.43;100249.09;4453743;32;20097;-61
2022/05/22 00:30:39;;;;;;;0.90;0.90;;;;;;;15.69;57.06;100252.69;4453990;32;20173;-61
2022/05/22 00:33:06;;;;;;;4.07;1.40;;;;;;;15.64;56.60;100251.06;4453855;32;20436;-61
2022/05/22 00:35:33;;;;;;;4.65;1.27;;;;;;;15.59;57.11;100253.87;4453976;32;20161;-61
2022/05/22 00:38:00;;;;;;;1.37;1.15;;;;;;;15.69;56.55;100247.37;4453769;32;20097;-61
2022/05/22 00:40:28;;;;;;;2.42;1.30;;;;;;;15.61;56.93;100248.50;4453739;32;20123;-61
2022/05/22 00:42:55;;;;;;;1.33;1.30;;;;;;;15.56;57.15;100253.13;4453773;32;20487;-61
2022/05/22 00:45:22;;;;;;;4.53;1.50;;;;;;;15.56;57.29;100259.28;4453864;32;20119;-61
2022/05/22 00:47:54;;;;;;;4.35;1.40;;;;;;;15.59;56.70;100253.87;4454015;32;20118;-61
2022/05/22 00:50:22;;;;;;;1.65;1.30;;;;;;;15.49;57.23;100255.13;4453615;32;20096;-61
2022/05/22 00:52:55;;;;;;;1.73;1.20;;;;;;;15.51;57.04;100254.16;4453633;32;20502;-61
2022/05/22 00:55:28;;;;;;;1.40;1.30;;;;;;;15.38;57.76;100252.81;4453710;32;20103;-61
2022/05/22 00:57:59;;;;;;;1.65;1.30;;;;;;;15.33;57.71;100259.19;4453653;32;20443;-61
2022/05/22 01:00:33;;;;;;;1.30;1.20;;;;;;;15.29;58.45;100256.63;4453655;32;20135;-61
2022/05/22 01:05:51;;;;;;;2.33;1.35;;;;;;;15.24;58.33;100253.28;4453421;32;20108;-61
2022/05/22 01:08:19;;;;;;;3.20;1.48;;;;;;;15.20;58.71;100248.13;4453377;32;20130;-61
2022/05/22 01:10:50;;;;;;;2.05;1.62;;;;;;;15.17;58.50;100250.87;4453331;32;20089;-61
2022/05/22 01:13:24;;;;;;;1.35;1.27;;;;;;;15.30;58.19;100252.22;4453457;32;20166;-61
2022/05/22 01:15:51;;;;;;;2.15;1.15;;;;;;;15.24;58.58;100247.09;4453579;32;20085;-61
2022/05/22 01:18:19;;;;;;;1.55;1.30;;;;;;;15.21;58.50;100249.88;4453261;32;20172;-61
2022/05/22 01:20:49;;;;;;;1.73;1.37;;;;;;;15.24;57.82;100249.75;4453268;32;20507;-61
2022/05/22 01:23:18;;;;;;;1.35;1.25;;;;;;;15.20;58.52;100253.44;4453484;32;20140;-61
2022/05/22 01:25:46;;;;;;;3.65;1.30;;;;;;;15.17;58.22;100254.41;4453897;32;20111;-61
2022/05/22 01:28:17;;;;;;;2.47;1.17;;;;;;;15.24;57.74;100255.94;4455292;32;20088;-61
2022/05/22 01:30:45;;;;;;;2.00;1.40;;;;;;;15.28;57.90;100246.94;4455535;32;20466;-61
2022/05/22 01:33:12;;;;;;;1.23;1.20;;;;;;;15.30;57.56;100258.41;4455498;32;20405;-61
2022/05/22 01:35:40;;;;;;;2.92;1.37;;;;;;;15.35;57.42;100252.06;4455159;32;20085;-61
2022/05/22 01:38:09;;;;;;;1.40;1.25;;;;;;;15.47;56.71;100254.28;4455369;32;20100;-61
2022/05/22 01:40:38;;;;;;;1.37;1.27;;;;;;;15.42;57.27;100256.25;4455444;32;20127;-61
2022/05/22 01:43:05;;;;;;;4.22;1.00;;;;;;;15.38;57.77;100257.28;4455127;32;20173;-61
2022/05/22 01:45:33;;;;;;;3.58;1.33;;;;;;;15.35;56.91;100246.75;4455261;32;20161;-61
2022/05/22 01:48:02;;;;;;;1.62;1.30;;;;;;;15.37;57.13;100259.06;4455302;32;20096;-61
2022/05/22 01:50:30;;;;;;;4.22;1.27;;;;;;;15.44;57.44;100254.37;4455257;32;20097;-61
2022/05/22 01:52:58;;;;;;;2.78;1.02;;;;;;;15.45;57.17;100258.81;4455259;32;20198;-61
2022/05/22 01:55:25;;;;;;;1.50;1.17;;;;;;;15.41;56.99;100250.06;4455426;32;20468;-61
2022/05/22 01:57:57;;;;;;;2.28;1.00;;;;;;;15.48;56.16;100256.03;4455364;32;20084;-63
2022/05/22 02:00:26;;;;;;;1.40;1.27;;;;;;;15.47;56.67;100246.31;4455233;32;20131;-63
2022/05/22 02:02:55;;;;;;;1.08;1.08;;;;;;;15.50;55.98;100248.88;4455197;32;20175;-63
2022/05/22 02:05:24;;;;;;;1.52;1.02;;;;;;;15.53;55.75;100243.47;4455206;32;20081;-63
2022/05/22 02:10:40;;;;;;;1.50;0.95;;;;;;;15.54;55.34;100239.88;4455142;32;20448;-63
2022/05/22 02:13:07;;;;;;;1.20;1.10;;;;;;;15.60;55.06;100244.13;4455235;32;20161;-64
2022/05/22 02:15:36;;;;;;;1.70;1.23;;;;;;;15.64;54.91;100241.28;4454906;32;20496;-63
2022/05/22 02:18:03;;;;;;;3.25;1.17;;;;;;;15.71;54.46;100242.84;4455233;32;20122;-64
2022/05/22 02:20:30;;;;;;;4.95;1.27;;;;;;;15.82;54.23;100242.47;4454907;32;20555;-63
2022/05/22 02:22:58;;;;;;;1.62;1.45;;;;;;;15.78;54.47;100241.72;4455151;32;20100;-63
2022/05/22 02:25:31;;;;;;;1.40;1.00;;;;;;;15.81;54.66;100247.84;4455255;32;20172;-64
2022/05/22 02:28:00;;;;;;;2.78;1.20;;;;;;;15.76;55.47;100242.72;4455098;32;20110;-63
2022/05/22 02:30:32;;;;;;;1.60;1.25;;;;;;;15.80;55.00;100251.44;4454938;32;20472;-63
2022/05/22 02:32:59;;;;;;;1.70;1.45;;;;;;;15.82;54.83;100244.25;4454850;32;20449;-63
2022/05/22 02:35:30;;;;;;;1.83;1.17;;;;;;;15.71;55.71;100241.97;4454967;32;20081;-63
2022/05/22 02:37:59;;;;;;;1.33;1.23;;;;;;;15.72;55.59;100241.94;4453881;32;20122;-63
2022/05/22 02:40:31;;;;;;;1.80;1.40;;;;;;;15.78;55.52;100247.03;4454942;32;20158;-63
2022/05/22 02:42:59;;;;;;;1.20;1.10;;;;;;;15.80;55.67;100256.75;4454936;32;20155;-63
2022/05/22 02:45:31;;;;;;;1.40;1.30;;;;;;;15.79;55.49;100255.84;4454855;32;20081;-63
2022/05/22 02:47:59;;;;;;;1.48;1.37;;;;;;;15.68;55.94;100250.91;4454804;32;20088;-63
2022/05/22 02:50:29;;;;;;;2.42;1.37;;;;;;;15.64;56.19;100246.59;4440346;32;20120;-63
2022/05/22 02:52:59;;;;;;;2.33;1.30;;;;;;;15.60;56.19;100252.94;4454969;32;20108;-63
2022/05/22 02:55:27;;;;;;;4.62;1.10;;;;;;;15.53;56.42;100252.28;4454850;32;20089;-63
2022/05/22 02:57:55;;;;;;;2.70;1.55;;;;;;;15.53;56.57;100257.59;4454884;32;20084;-63
2022/05/22 03:00:25;;;;;;;3.40;1.30;;;;;;;15.48;56.63;100256.03;4454571;32;20420;-61
2022/05/22 03:02:53;;;;;;;3.75;1.08;;;;;;;15.48;56.37;100256.91;4454623;32;20447;-61
2022/05/22 03:05:21;;;;;;;1.60;1.50;;;;;;;15.45;56.00;100250.84;4454834;32;20085;-61
2022/05/22 03:07:48;;;;;;;4.05;1.40;;;;;;;15.41;56.15;100263.34;4454547;32;20602;-61
2022/05/22 03:10:20;;;;;;;8.02;1.08;;;;;;;15.39;56.05;100259.84;4454911;32;20572;-61
2022/05/22 03:12:47;;;;;;;1.08;1.08;;;;;;;15.37;55.79;100260.81;4454721;32;20104;-61
2022/05/22 03:15:16;;;;;;;2.53;1.20;;;;;;;15.39;55.62;100257.19;4454748;32;20093;-61
2022/05/22 03:17:43;;;;;;;1.40;1.30;;;;;;;15.43;55.03;100250.00;4454729;32;20457;-61
2022/05/22 03:20:11;;;;;;;3.17;1.05;;;;;;;15.42;55.24;100251.78;4440039;32;20523;-61
2022/05/22 03:22:39;;;;;;;3.80;1.23;;;;;;;15.41;55.29;100257.16;4454677;32;20144;-61
2022/05/22 03:25:07;;;;;;;4.28;1.20;;;;;;;15.40;55.11;100244.78;4454707;32;20097;-61
2022/05/22 03:27:34;;;;;;;1.17;0.98;;;;;;;15.49;54.41;100241.84;4454379;32;20092;-61
2022/05/22 03:30:04;;;;;;;2.75;1.15;;;;;;;15.47;54.48;100246.31;4454376;32;20166;-61
2022/05/22 03:32:32;;;;;;;3.08;1.20;;;;;;;15.48;54.20;100248.06;4454392;32;20210;-61
2022/05/22 03:35:00;;;;;;;2.72;1.17;;;;;;;15.55;53.60;100236.31;4454509;32;20127;-61
2022/05/22 03:37:27;;;;;;;2.75;1.20;;;;;;;15.50;54.10;100248.88;4454653;32;20191;-61
2022/05/22 03:39:56;;;;;;;2.55;1.30;;;;;;;15.53;53.80;100248.78;4454532;32;20139;-61
2022/05/22 03:42:24;;;;;;;1.70;0.90;;;;;;;15.53;53.88;100259.41;4454494;32;20123;-61
2022/05/22 03:44:52;;;;;;;6.87;1.10;;;;;;;15.53;53.66;100252.28;4454295;32;20518;-61
2022/05/22 03:47:19;;;;;;;4.65;1.30;;;;;;;15.57;53.66;100252.19;4454363;32;20118;-61
2022/05/22 03:49:48;;;;;;;1.27;1.05;;;;;;;15.55;53.86;100257.56;4453954;32;20463;-61
2022/05/22 03:52:16;;;;;;;5.35;1.35;;;;;;;15.54;53.98;100256.66;4454476;32;20100;-61
2022/05/22 03:54:44;;;;;;;1.62;1.23;;;;;;;15.51;54.44;100263.87;4454521;32;20461;-61
2022/05/22 03:57:12;;;;;;;4.30;1.20;;;;;;;15.53;54.38;100260.25;4454207;32;20118;-61
2022/05/22 03:59:41;;;;;;;1.42;1.30;;;;;;;15.54;54.79;100264.63;4454339;32;20096;-61
2022/05/22 04:02:08;;;;;;;5.87;1.40;;;;;;;15.53;54.53;100264.72;4454383;32;20498;-61
2022/05/22 04:04:36;;;;;;;1.37;1.25;;;;;;;15.53;54.95;100277.97;4454445;32;20089;-61
2022/05/22 04:07:05;;;;;;;5.37;1.20;;;;;;;15.53;54.70;100270.00;4454387;32;20096;-61
2022/05/22 04:09:32;;;;;;;5.80;1.30;;;;;;;15.52;54.93;100268.28;4454122;32;20504;-61
2022/05/22 04:12:04;;;;;;;1.25;1.10;;;;;;;15.53;54.79;100275.31;4454382;32;20162;-61
2022/05/22 04:14:31;;;;;;;1.25;1.20;;;;;;;15.56;54.66;100269.06;4454545;32;20080;-61
2022/05/22 04:17:00;;;;;;;6.15;1.55;;;;;;;15.57;54.70;100273.44;4454286;32;20118;-61
2022/05/22 04:19:28;;;;;;;1.50;1.25;;;;;;;15.60;54.88;100268.88;4454227;32;20124;-61
2022/05/22 04:21:55;;;;;;;1.30;1.20;;;;;;;15.63;54.78;100275.88;4454292;32;20127;-61
2022/05/22 04:27:09;;;;;;;2.25;1.17;;;;;;;15.80;54.36;100275.34;4454163;32;20455;-61
2022/05/22 04:29:37;;;;;;;0.98;0.98;;;;;;;15.82;54.22;100274.34;4453964;32;20112;-61
2022/05/22 04:32:05;;;;;;;1.40;1.10;;;;;;;15.82;54.40;100279.66;4453969;32;20136;-61
2022/05/22 04:34:32;;;;;;;1.95;1.20;;;;;;;15.85;54.38;100279.56;4454031;32;20131;-61
2022/05/22 04:37:04;;;;;;;1.30;1.20;;;;;;;15.87;54.70;100284.84;4454060;32;20088;-61
2022/05/22 04:39:34;;;;;;;6.68;1.48;;;;;;;15.87;54.46;100279.53;4453999;32;20196;-61
2022/05/22 04:42:02;;;;;;;10.10;1.45;;;;;;;15.91;54.90;100283.81;4454005;32;20385;-61
2022/05/22 04:44:30;;;;;;;2.47;1.08;;;;;;;15.95;54.31;100282.75;4453662;32;20081;-61
2022/05/22 04:47:00;;;;;;;3.10;1.37;;;;;;;15.96;54.33;100281.84;4453899;32;20100;-61
2022/05/22 04:49:27;;;;;;;3.10;1.20;;;;;;;16.04;54.40;100290.38;4453550;32;20093;-61
2022/05/22 04:51:59;;;;;;;2.37;1.17;;;;;;;16.06;53.90;100288.56;4453750;32;20493;-61
2022/05/22 04:54:27;;;;;;;2.12;1.20;;;;;;;16.19;53.66;100287.19;4453576;32;20072;-61
2022/05/22 04:56:55;;;;;;;1.17;1.08;;;;;;;16.11;53.73;100280.41;4453563;32;20097;-61
2022/05/22 04:59:22;;;;;;;3.55;1.30;;;;;;;16.08;53.98;100288.50;4453675;32;20489;-61
2022/05/22 05:01:49;;;;;;;2.35;1.37;;;;;;;16.02;54.14;100284.28;4454905;32;20093;-61
2022/05/22 05:04:17;;;;;;;2.97;1.30;;;;;;;16.06;54.08;100285.91;4455363;32;20438;-61
2022/05/22 05:06:45;;;;;;;3.03;1.27;;;;;;;16.05;53.88;100285.97;4455455;32;20092;-61
2022/05/22 05:09:21;;;;;;;3.12;1.37;;;;;;;16.15;54.03;100274.09;4455538;32;20146;-61
2022/05/22 05:11:49;;;;;;;1.80;1.10;;;;;;;16.13;53.90;100276.78;4455522;32;20136;-61
2022/05/22 05:14:17;;;;;;;1.33;1.23;;;;;;;16.02;54.18;100269.19;4455581;32;20096;-61
2022/05/22 05:16:44;;;;;;;4.40;1.33;;;;;;;16.14;53.98;100272.31;4455472;32;20101;-61
2022/05/22 05:19:11;;;;;;;3.00;1.30;;;;;;;16.20;54.01;100275.63;4455599;32;20100;-61
2022/05/22 05:21:43;;;;;;;3.53;1.20;;;;;;;16.24;53.79;100277.25;4455467;32;20089;-61
2022/05/22 05:24:10;;;;;;;5.18;1.00;;;;;;;16.28;53.76;100272.69;4455538;32;20107;-61
2022/05/22 05:26:38;;;;;;;13.85;1.80;;;;;;;16.34;53.57;100276.91;4455585;32;20104;-61
2022/05/22 05:29:07;;;;;;;1.70;1.27;;;;;;;16.31;53.66;100287.66;4455046;32;20119;-61
2022/05/22 05:31:34;;;;;;;1.58;1.30;;;;;;;16.40;53.78;100282.03;4455462;32;20130;-61
2022/05/22 05:34:08;;;;;;;9.52;1.67;;;;;;;16.60;53.16;100279.44;4455569;32;20625;-61
2022/05/22 05:36:36;;;;;;;1.20;1.10;;;;;;;16.60;52.65;100286.56;4455346;32;20523;-61
2022/05/22 05:39:04;;;;;;;3.12;1.40;;;;;;;16.57;52.80;100284.00;4455325;32;20089;-61
2022/05/22 05:41:35;;;;;;;1.40;1.20;;;;;;;16.79;52.35;100284.09;4455327;32;20213;-61
2022/05/22 05:44:05;;;;;;;3.10;1.48;;;;;;;16.88;51.80;100286.41;4455122;32;20432;-61
2022/05/22 05:46:37;;;;;;;3.40;1.30;;;;;;;16.86;51.88;100293.59;4455199;32;20443;-61
2022/05/22 05:49:08;;;;;;;4.00;1.45;;;;;;;17.05;51.84;100291.91;4454947;32;20146;-61
2022/05/22 05:51:36;;;;;;;2.15;1.20;;;;;;;16.96;51.70;100290.50;4455226;32;20124;-61
2022/05/22 05:54:04;;;;;;;4.53;1.20;;;;;;;17.09;52.20;100295.31;4454899;32;20157;-61
2022/05/22 05:56:38;;;;;;;2.50;1.30;;;;;;;17.13;51.97;100299.59;4454912;32;20187;-61
2022/05/22 05:59:06;;;;;;;1.87;1.20;;;;;;;17.13;51.92;100296.94;4455141;32;20389;-61
2022/05/22 06:01:34;;;;;;;1.40;1.30;;;;;;;17.33;52.30;100298.78;4455209;32;20157;-61
2022/05/22 06:04:03;;;;;;;3.53;1.23;;;;;;;17.32;52.16;100297.94;4454997;32;20089;-61
2022/05/22 06:06:31;;;;;;;3.00;1.50;;;;;;;17.33;51.87;100304.97;4455148;32;20524;-61
2022/05/22 06:08:58;;;;;;;1.60;1.30;;;;;;;17.56;50.84;100303.16;4454938;32;20097;-61
2022/05/22 06:11:26;;;;;;;2.17;1.45;;;;;;;17.49;51.05;100299.91;4454941;32;20131;-61
2022/05/22 06:13:54;;;;;;;1.75;1.37;;;;;;;17.56;50.51;100293.38;4455069;32;20514;-61
2022/05/22 06:16:22;;;;;;;3.17;1.20;;;;;;;17.60;50.67;100292.31;4455061;32;20112;-61
2022/05/22 06:18:51;;;;;;;1.42;1.33;;;;;;;17.71;50.03;100289.19;4454732;32;20109;-61
2022/05/22 06:21:21;;;;;;;6.10;1.62;;;;;;;17.48;50.34;100290.16;4455054;32;20504;-61
2022/05/22 06:23:50;;;;;;;3.58;1.65;;;;;;;17.40;50.83;100281.63;4455193;32;20154;-61
2022/05/22 06:26:21;;;;;;;5.53;1.60;;;;;;;17.61;50.37;100285.19;4455022;32;20080;-61
2022/05/22 06:28:48;;;;;;;1.62;1.27;;;;;;;17.75;49.72;100292.59;4454498;32;20466;-61
2022/05/22 06:31:15;;;;;;;2.00;1.17;;;;;;;17.68;50.51;100286.66;4440445;32;20105;-61
2022/05/22 06:33:44;;;;;;;1.08;1.08;;;;;;;17.82;49.65;100286.97;4454751;32;20144;-61
2022/05/22 06:36:15;;;;;;;3.75;1.62;;;;;;;17.87;50.32;100289.41;4454835;32;20100;-61
2022/05/22 06:41:29;;;;;;;1.30;1.20;;;;;;;18.36;48.76;100272.09;4454971;32;20092;-61
2022/05/22 06:43:57;;;;;;;4.72;1.48;;;;;;;18.61;48.13;100279.81;4454709;32;20433;-61
2022/05/22 06:46:33;;;;;;;3.28;1.42;;;;;;;18.50;48.54;100291.94;4455032;32;20146;-61
2022/05/22 06:49:03;;;;;;;5.65;1.20;;;;;;;18.61;48.06;100286.97;4454795;32;20154;-61
2022/05/22 06:51:31;;;;;;;1.62;1.48;;;;;;;18.70;46.89;100288.37;4454866;32;20562;-61
2022/05/22 06:53:58;;;;;;;1.90;1.40;;;;;;;18.77;47.03;100290.69;4454908;32;20161;-61
2022/05/22 06:56:27;;;;;;;2.58;1.25;;;;;;;18.73;46.57;100290.88;4454879;32;20084;-61
2022/05/22 06:58:55;;;;;;;1.35;1.25;;;;;;;18.82;47.19;100290.47;4454740;32;20510;-61
2022/05/22 07:01:24;;;;;;;3.42;1.42;;;;;;;18.81;46.61;100283.41;4454695;32;20383;-61
2022/05/22 07:03:52;;;;;;;2.53;1.30;;;;;;;18.80;45.83;100287.87;4454716;32;20167;-61
2022/05/22 07:06:19;;;;;;;1.75;1.33;;;;;;;18.76;45.99;100277.41;4454681;32;20627;-61
2022/05/22 07:08:46;;;;;;;5.47;1.37;;;;;;;19.11;45.41;100263.22;4453932;32;20555;-61
2022/05/22 07:14:01;;;;;;;1.95;1.30;;;;;;;19.46;45.03;100263.28;4454501;32;20080;-61
2022/05/22 07:16:29;;;;;;;2.85;1.20;;;;;;;19.70;44.58;100261.19;4454785;32;20123;-61
2022/05/22 07:18:57;;;;;;;5.55;1.20;;;;;;;19.70;44.41;100260.34;4454583;32;20556;-61
2022/05/22 07:21:24;;;;;;;2.42;1.40;;;;;;;19.62;44.61;100263.38;4454354;32;20113;-61
2022/05/22 07:23:53;;;;;;;5.12;1.37;;;;;;;19.67;44.46;100256.00;4453836;32;20102;-61
2022/05/22 07:26:21;;;;;;;6.05;1.42;;;;;;;19.94;44.34;100264.41;4454413;32;20090;-61
2022/05/22 07:28:50;;;;;;;1.83;1.40;;;;;;;19.83;43.82;100266.78;4454317;32;20101;-61
2022/05/22 07:31:21;;;;;;;2.08;1.23;;;;;;;19.76;43.70;100254.69;4453933;32;20092;-61
2022/05/22 07:33:49;;;;;;;3.08;1.12;;;;;;;19.78;42.89;100252.78;4454353;32;20118;-61
2022/05/22 07:36:17;;;;;;;4.18;1.37;;;;;;;19.97;43.06;100250.87;4454555;32;20472;-61
2022/05/22 07:38:46;;;;;;;1.20;1.10;;;;;;;20.02;41.04;100261.31;4454427;32;20517;-61
2022/05/22 07:41:14;;;;;;;3.05;1.17;;;;;;;20.09;41.17;100253.84;4454178;32;20164;-61
2022/05/22 07:43:42;;;;;;;1.95;1.10;;;;;;;20.29;41.63;100254.50;4454564;32;20455;-61
2022/05/22 07:46:14;;;;;;;2.58;1.10;;;;;;;20.25;41.16;100252.94;4454416;32;20384;-61
2022/05/22 07:48:43;;;;;;;2.60;1.00;;;;;;;20.68;40.72;100244.41;4454374;32;20100;-61
2022/05/22 07:51:12;;;;;;;3.42;1.17;;;;;;;20.57;40.51;100252.16;4454083;32;20417;-61
2022/05/22 07:53:39;;;;;;;5.28;1.30;;;;;;;20.99;40.24;100238.19;4454102;32;20444;-61
2022/05/22 07:56:08;;;;;;;3.08;1.20;;;;;;;21.54;39.34;100234.09;4454291;32;20127;-62
2022/05/22 07:58:36;;;;;;;2.05;1.25;;;;;;;21.71;39.78;100239.31;4454051;32;20538;-62
2022/05/22 08:01:04;;;;;;;5.30;1.33;;;;;;;21.78;39.19;100240.66;4454039;32;20482;-61
2022/05/22 08:03:37;;;;;;;3.08;1.48;;;;;;;21.21;40.59;100244.00;4454237;32;20080;-61
2022/05/22 08:06:05;;;;;;;1.27;1.20;;;;;;;21.08;40.04;100231.41;4454289;32;20119;-62
2022/05/22 08:08:33;;;;;;;2.50;1.10;;;;;;;21.23;40.47;100228.69;4454240;32;20471;-61
2022/05/22 08:11:10;;;;;;;2.37;0.95;;;;;;;21.47;39.61;100234.44;4454174;32;20116;-62
2022/05/22 08:13:42;;;;;;;2.53;1.58;;;;;;;21.29;39.82;100242.69;4454426;32;20072;-62
2022/05/22 08:16:09;;;;;;;4.78;1.12;;;;;;;20.93;38.98;100236.69;4454195;32;20165;-62
2022/05/22 08:18:36;;;;;;;1.92;1.00;;;;;;;20.89;37.68;100219.06;4454156;32;20108;-61
2022/05/22 08:21:06;;;;;;;2.25;1.02;;;;;;;20.95;38.05;100224.09;4454253;32;20531;-61
2022/05/22 08:23:35;;;;;;;2.55;1.00;;;;;;;20.89;39.14;100226.25;4454350;32;20497;-61
2022/05/22 08:26:03;;;;;;;5.12;1.20;;;;;;;20.99;38.99;100228.31;4453858;32;20104;-62
2022/05/22 08:28:31;;;;;;;1.27;0.80;;;;;;;21.31;38.91;100219.31;4454066;32;20120;-61
2022/05/22 08:30:58;;;;;;;1.00;0.90;;;;;;;21.23;37.15;100220.66;4454171;32;20104;-62
2022/05/22 08:33:25;;;;;;;1.87;1.10;;;;;;;20.90;38.46;100214.59;4454190;32;20114;-61
2022/05/22 08:35:53;;;;;;;2.80;1.10;;;;;;;21.11;38.11;100218.69;4437997;32;20085;-62
2022/05/22 08:38:20;;;;;;;1.83;1.10;;;;;;;21.07;38.17;100216.28;4453796;32;20104;-62
2022/05/22 08:41:16;;;;;;;2.87;1.20;;;;;;;20.92;37.11;100210.88;4453876;32;20172;-61
2022/05/22 08:44:00;;;;;;;2.30;0.80;;;;;;;20.88;38.00;100200.41;4440616;32;20111;-62
2022/05/22 08:46:55;;;;;;;2.58;1.10;;;;;;;21.08;37.94;100191.22;4453794;32;20072;-62
2022/05/22 08:49:34;;;;;;;2.28;0.93;;;;;;;21.35;38.72;100199.50;4453554;32;20081;-61
2022/05/22 08:52:17;;;;;;;3.55;1.00;;;;;;;21.89;37.57;100203.31;4453635;32;20174;-62
2022/05/22 08:54:56;;;;;;;0.70;0.70;;;;;;;21.88;36.95;100206.09;4453336;32;20574;-61
2022/05/22 09:00:55;;;;;;;0.77;0.77;;;;;;;21.58;37.25;100188.22;4453572;32;20081;-61
2022/05/22 09:03:30;;;;;;;2.17;1.23;;;;;;;21.74;37.13;100198.91;4453478;32;20088;-62
2022/05/22 09:06:05;;;;;;;4.00;1.00;;;;;;;21.63;36.77;100194.19;4453453;32;20753;-62
2022/05/22 09:08:39;;;;;;;2.97;0.93;;;;;;;22.11;37.17;100185.87;4453611;32;20088;-62
2022/05/22 09:11:06;;;;;;;1.65;0.88;;;;;;;22.49;35.79;100188.84;4453377;32;20085;-62
2022/05/22 09:13:42;;;;;;;7.43;0.93;;;;;;;21.89;36.21;100197.09;4453299;32;20112;-62
2022/05/22 09:16:23;;;;;;;1.77;0.88;;;;;;;;;;4453355;32;20154;-61
2022/05/22 09:18:55;;;;;;;2.40;0.90;;;;;;;21.74;36.67;100182.81;4453489;32;20755;-62
2022/05/22 09:21:33;;;;;;;1.67;0.90;;;;;;;22.06;37.04;100178.12;4453602;32;20164;-62
2022/05/22 09:24:03;;;;;;;2.85;0.98;;;;;;;22.30;35.40;100170.38;4438838;32;20104;-62
2022/05/22 09:26:45;;;;;;;3.62;1.10;;;;;;;21.97;36.29;100165.28;4438461;32;20111;-62
2022/05/22 09:29:44;;;;;;;2.80;1.00;;;;;;;21.74;36.96;100166.72;4438561;32;20444;-61
2022/05/22 09:32:36;;;;;;;1.52;0.90;;;;;;;21.62;36.82;100159.41;4453020;32;20101;-62
2022/05/22 09:35:31;;;;;;;3.45;1.08;;;;;;;21.98;35.69;100155.41;4453156;32;20507;-62
2022/05/22 09:38:11;;;;;;;3.83;1.00;;;;;;;22.16;34.59;100146.25;4453250;32;20119;-62
2022/05/22 09:40:51;;;;;;;5.93;1.05;;;;;;;22.17;34.45;100158.69;4453054;32;20115;-62
2022/05/22 09:43:43;;;;;;;4.22;1.02;;;;;;;22.37;33.99;100160.13;4453086;32;20841;-62
2022/05/22 09:46:32;;;;;;;2.25;1.00;;;;;;;22.98;33.46;100155.25;4453023;32;20119;-62
2022/05/22 09:49:16;;;;;;;1.98;1.20;;;;;;;23.25;33.13;100147.12;4455140;32;20072;-61
2022/05/22 09:52:10;;;;;;;2.12;1.00;;;;;;;23.56;31.10;100154.81;4455303;32;20785;-62
2022/05/22 09:55:05;;;;;;;1.95;0.77;;;;;;;23.22;31.29;100148.22;4455166;32;20164;-62
2022/05/22 09:57:50;;;;;;;4.20;0.80;;;;;;;23.44;32.06;100142.22;4455139;32;20096;-62
2022/05/22 10:00:22;;;;;;;1.95;0.73;;;;;;;23.75;31.91;100146.34;4455089;32;20111;-62
2022/05/22 10:03:21;;;;;;;9.02;1.30;;;;;;;24.22;31.34;100141.22;4455138;32;20127;-62
2022/05/22 10:05:57;;;;;;;4.18;0.90;;;;;;;23.89;31.81;100139.13;4440005;32;20123;-62
2022/05/22 10:08:37;;;;;;;4.50;0.88;;;;;;;24.48;30.25;100139.34;4455125;32;20138;-62
2022/05/22 10:11:04;;;;;;;1.55;1.05;;;;;;;24.10;30.90;100140.28;4455093;32;20084;-62
2022/05/22 10:14:00;;;;;;;1.02;0.90;;;;;;;24.41;30.96;100128.16;4455154;32;20160;-62
2022/05/22 10:16:52;;;;;;;0.93;0.90;;;;;;;24.50;30.88;100127.50;4454842;32;20116;-62
2022/05/22 10:19:22;;;;;;;4.55;1.20;;;;;;;24.99;29.17;100125.66;4455117;32;20462;-62
2022/05/22 10:22:01;;;;;;;2.10;0.90;;;;;;;24.30;29.78;100126.22;4455104;32;20068;-62
2022/05/22 10:24:59;;;;;;;3.00;1.10;;;;;;;24.41;30.15;100127.31;4454892;32;20123;-62
2022/05/22 10:27:32;;;;;;;1.33;0.80;;;;;;;24.28;30.66;100135.41;4454812;32;20086;-62
2022/05/22 10:30:13;;;;;;;5.75;0.95;;;;;;;24.28;31.15;100122.81;4454582;32;20183;-62
2022/05/22 10:32:49;;;;;;;0.80;0.80;;;;;;;24.58;30.45;100113.44;4454837;32;20114;-61
2022/05/22 10:35:23;;;;;;;4.28;1.00;;;;;;;24.60;30.35;100110.66;4454962;32;20156;-62
2022/05/22 10:38:16;;;;;;;1.58;0.77;;;;;;;23.60;30.68;100125.84;4454756;32;20240;-62
2022/05/22 10:43:39;;;;;;;2.67;1.08;;;;;;;23.60;30.30;100133.94;4454657;32;20443;-61
2022/05/22 10:46:10;;;;;;;1.37;0.77;;;;;;;23.47;30.60;100114.25;4454983;32;20422;-62
2022/05/22 10:48:49;;;;;;;4.03;0.90;;;;;;;23.97;30.00;100110.69;4454687;32;20463;-62
2022/05/22 10:51:25;;;;;;;10.25;1.20;;;;;;;23.76;29.82;100105.03;4454856;32;20108;-62
2022/05/22 10:53:55;;;;;;;2.78;1.05;;;;;;;24.11;29.77;100106.16;4454777;32;20115;-62
2022/05/22 10:56:32;;;;;;;5.90;0.90;;;;;;;24.12;29.85;100099.78;4454624;32;20143;-62
2022/05/22 10:59:07;;;;;;;3.75;0.80;;;;;;;24.33;29.87;100099.06;4453729;32;20514;-62
2022/05/22 11:01:37;;;;;;;1.85;1.05;;;;;;;24.17;29.88;100116.44;4454670;32;20076;-62
2022/05/22 11:04:09;;;;;;;3.40;0.65;;;;;;;25.06;29.90;100091.84;4454585;32;20126;-62
2022/05/22 11:06:58;;;;;;;6.20;1.00;;;;;;;25.24;28.51;100105.78;4454665;32;20164;-61
2022/05/22 11:09:31;;;;;;;2.37;1.08;;;;;;;24.07;30.71;100122.53;4454838;32;20113;-61
2022/05/22 11:12:06;;;;;;;5.30;1.35;;;;;;;23.94;31.10;100119.00;4454601;32;20145;-62
2022/05/22 11:14:35;;;;;;;2.90;1.05;;;;;;;24.26;30.70;100113.09;4454572;32;20099;-61
2022/05/22 11:17:22;;;;;;;3.42;0.70;;;;;;;24.39;30.33;100095.09;4454485;32;20084;-62
2022/05/22 11:19:55;;;;;;;2.37;1.15;;;;;;;24.28;30.68;100103.94;4454520;32;20573;-62
2022/05/22 11:22:23;;;;;;;2.28;0.85;;;;;;;24.45;30.34;100093.78;4454627;32;20163;-62
2022/05/22 11:25:09;;;;;;;5.53;0.80;;;;;;;24.53;29.92;100100.34;4454542;32;20114;-62
2022/05/22 11:27:52;;;;;;;1.77;0.80;;;;;;;25.07;28.84;100090.88;4454452;32;20084;-62
2022/05/22 11:30:34;;;;;;;2.62;0.70;;;;;;;26.20;27.72;100087.31;4454212;32;20100;-62
2022/05/22 11:33:32;;;;;;;1.75;0.80;;;;;;;27.84;25.84;100095.03;4454445;32;20080;-62
2022/05/22 11:36:44;;;;;;;3.40;0.98;;;;;;;29.70;24.49;100081.50;4454402;32;20072;-62
2022/05/22 11:39:39;;;;;;;2.95;1.10;;;;;;;28.19;24.85;100076.62;4425071;32;20109;-62
2022/05/22 11:42:33;;;;;;;1.48;1.02;;;;;;;27.67;25.72;100070.44;4454495;32;20146;-62
2022/05/22 11:45:06;;;;;;;2.28;1.00;;;;;;;28.54;25.23;100074.31;4454669;32;20592;-62
2022/05/22 11:47:39;;;;;;;5.22;0.90;;;;;;;28.34;24.30;100086.97;4454370;32;20080;-62
2022/05/22 11:50:09;;;;;;;4.90;1.30;;;;;;;28.07;24.67;100071.34;4454213;32;20140;-62
2022/05/22 11:52:55;;;;;;;1.48;0.80;;;;;;;29.25;23.97;100075.88;4454240;32;20476;-62
2022/05/22 11:55:51;;;;;;;6.13;1.07;;;;;;;29.38;23.19;100081.00;4454365;32;20101;-62
2022/05/22 11:58:48;;;;;;;5.37;0.90;;;;;;;29.95;23.02;100068.22;4421263;32;20162;-62
2022/05/22 12:01:21;;;;;;;2.65;1.08;;;;;;;30.69;22.05;100062.62;4454267;32;20184;-62
2022/05/22 12:03:57;;;;;;;1.37;0.80;;;;;;;29.89;23.49;100063.38;4454182;32;20097;-62
2022/05/22 12:06:27;;;;;;;2.28;0.77;;;;;;;30.93;22.45;100045.69;4454174;32;20544;-62
2022/05/22 12:09:34;;;;;;;5.10;0.90;;;;;;;31.10;21.21;100043.97;4454190;32;20080;-62